Highland Plt, Maine
Current Conditions -  °F | °C
As of 4:35 PM on Friday 31 Oct 2014 (Local Time) from KWVL Reporting Station
Clear Clear  
Wind Chill: 43°   Ceiling: Unl
Heat Index: 46°   Visibility: 10mi
Dew Point: 27°   Wind: 7mph
Humidity: 46%   Direction: 40°NE
Pressure: 30"   Gusts: NA
Location:  45.0341°N, 70.0886°W
Report Text: KWVL 312035Z 04006KT 10SM CLR 08/M03 A3000 RMK AO1
Loading
Personal Weather Stations






























Interactive Weather Map
Tropical Storm Tracking
New forecast layout! Learn more

10-Day Weather Forecast

Advertisements
Track Severe Weather on mobile